Time;durP1;ratioP1;P1;durP2;ratioP2;P2;SDS_P1;SDS_P2;PMS_P1;PMS_P2;Temp;Humidity;BMP_temperature;BMP_pressure;BME280_temperature;BME280_humidity;BME280_pressure;Samples;Min_cycle;Max_cycle;Signal;HPM_P1;HPM_P2
2020/12/27 00:01:19;;;;;;;;;21.20;19.20;;;;;6.15;40.53;99228.91;6157225;28;96647;-63
2020/12/27 00:04:21;;;;;;;;;19.50;19.00;;;;;5.70;40.48;99140.72;6126304;28;97479;-63
2020/12/27 00:07:22;;;;;;;;;22.40;19.40;;;;;6.12;40.58;99217.69;6143835;28;98568;-64
2020/12/27 00:10:24;;;;;;;;;17.00;15.00;;;;;6.10;40.57;99212.56;6154399;28;97079;-63
2020/12/27 00:13:26;;;;;;;;;19.00;18.00;;;;;6.08;40.49;99201.19;6157332;28;97111;-64
2020/12/27 00:16:28;;;;;;;;;16.25;15.25;;;;;6.06;40.66;99204.03;6157869;28;96587;-63
2020/12/27 00:19:29;;;;;;;;;23.00;21.00;;;;;6.08;40.46;99201.19;6159202;28;96988;-63
2020/12/27 00:22:30;;;;;;;;;19.00;18.00;;;;;6.02;40.17;99193.91;6155340;28;97660;-63
2020/12/27 00:25:37;;;;;;;;;20.80;18.00;;;;;5.93;40.55;99187.81;6159926;28;97399;-63
2020/12/27 00:28:40;;;;;;;;;22.50;19.00;;;;;6.02;40.48;99185.88;6159384;28;96961;-63
2020/12/27 00:31:41;;;;;;;;;19.00;17.00;;;;;6.00;40.39;99178.03;6154049;28;97110;-63
2020/12/27 00:34:43;;;;;;;;;22.00;19.67;;;;;5.96;40.36;99182.09;6159693;28;97766;-63
2020/12/27 00:37:44;;;;;;;;;22.25;20.50;;;;;5.94;40.26;99173.44;6125296;28;97922;-63
2020/12/27 00:40:46;;;;;;;;;19.00;18.60;;;;;5.89;40.49;99169.63;6148076;28;97464;-63
2020/12/27 00:43:48;;;;;;;;;21.20;19.40;;;;;5.89;40.29;99173.16;6159130;28;97907;-63
2020/12/27 00:46:51;;;;;;;;;20.50;18.50;;;;;5.62;40.17;99131.78;6144814;28;96855;-64
2020/12/27 00:49:52;;;;;;;;;23.00;21.00;;;;;5.90;40.36;99179.34;6154040;28;97715;-63
2020/12/27 00:52:54;;;;;;;;;20.40;19.00;;;;;5.87;40.44;99167.13;6132393;28;97968;-63
2020/12/27 00:55:56;;;;;;;;;20.00;19.00;;;;;5.79;40.41;99163.69;6143805;28;98288;-63
2020/12/27 00:58:57;;;;;;;;;21.40;18.00;;;;;5.39;40.59;99140.88;6151826;28;98434;-63
2020/12/27 01:01:59;;;;;;;;;20.00;19.00;;;;;5.64;40.80;99171.72;6125738;28;97326;-63
2020/12/27 01:05:19;;;;;;;;;24.25;22.00;;;;;4.93;41.42;99122.28;6157593;28;97641;-63
2020/12/27 01:08:21;;;;;;;;;23.00;20.00;;;;;5.27;41.37;99158.41;6129801;28;97032;-63
2020/12/27 01:11:22;;;;;;;;;25.50;21.50;;;;;5.05;41.71;99152.91;6159635;28;98000;-63
2020/12/27 01:14:24;;;;;;;;;25.00;22.20;;;;;4.89;42.20;99147.66;6144423;28;97160;-63
2020/12/27 01:17:32;;;;;;;;;25.75;21.50;;;;;4.72;42.47;99135.47;6146294;28;97452;-63
2020/12/27 01:20:34;;;;;;;;;25.60;23.00;;;;;4.92;42.20;99136.66;6145286;28;97299;-63
2020/12/27 01:23:35;;;;;;;;;28.50;24.00;;;;;4.70;42.22;99087.56;6146097;28;97399;-62
2020/12/27 01:26:37;;;;;;;;;27.40;24.00;;;;;5.02;41.87;99131.88;6153715;28;97160;-63
2020/12/27 01:29:39;;;;;;;;;30.20;28.00;;;;;4.87;41.91;99085.59;6158657;28;97201;-63
2020/12/27 01:32:52;;;;;;;;;25.50;23.00;;;;;5.09;41.94;99110.59;6116411;28;97608;-63
2020/12/27 01:36:12;;;;;;;;;30.80;26.00;;;;;5.16;41.77;99106.19;6131884;28;97250;-63
2020/12/27 01:39:14;;;;;;;;;28.00;24.50;;;;;4.96;41.80;99081.84;6124842;28;96834;-63
2020/12/27 01:42:16;;;;;;;;;28.00;25.00;;;;;5.04;41.82;99097.78;6156548;28;97857;-63
2020/12/27 01:45:20;;;;;;;;;31.40;28.40;;;;;5.04;41.47;99116.50;6150836;28;98621;-63
2020/12/27 01:48:47;;;;;;;;;26.25;25.00;;;;;5.12;41.02;99094.22;6155370;28;97281;-63
2020/12/27 01:51:50;;;;;;;;;30.80;25.80;;;;;4.99;41.34;99078.78;6156531;28;96746;-63
2020/12/27 01:55:01;;;;;;;;;29.00;26.00;;;;;5.14;40.95;99085.00;6151985;28;96969;-64
2020/12/27 01:58:20;;;;;;;;;30.00;28.40;;;;;4.99;40.80;99051.25;6144415;28;97240;-63
2020/12/27 02:01:42;;;;;;;;;30.60;27.40;;;;;5.00;40.99;99066.25;6161166;28;98838;-63
2020/12/27 02:05:07;;;;;;;;;28.50;25.25;;;;;5.15;40.72;99072.47;6147313;28;96992;-63
2020/12/27 02:08:10;;;;;;;;;29.50;28.00;;;;;5.06;40.64;99069.06;6126427;28;97499;-62
2020/12/27 02:11:24;;;;;;;;;31.00;29.00;;;;;4.83;41.00;99040.72;6152858;28;97020;-63
2020/12/27 02:14:26;;;;;;;;;26.60;24.40;;;;;4.66;41.19;99032.03;6147179;28;97262;-62
2020/12/27 02:17:28;;;;;;;;;28.00;25.00;;;;;4.91;40.87;99060.19;6150606;28;96689;-62
2020/12/27 02:20:45;;;;;;;;;29.00;25.00;;;;;4.93;40.78;99055.50;6163365;28;97605;-63
2020/12/27 02:23:59;;;;;;;;;30.00;27.75;;;;;5.04;40.74;99059.53;6146924;28;98072;-63
2020/12/27 02:27:04;;;;;;;;;29.50;26.00;;;;;4.68;41.31;99054.06;6154087;28;97025;-62
2020/12/27 02:30:06;;;;;;;;;30.00;26.50;;;;;4.65;41.13;99031.19;6144968;28;96635;-62
2020/12/27 02:33:08;;;;;;;;;31.00;28.00;;;;;4.84;41.07;99055.75;6161583;28;98103;-62
2020/12/27 02:36:11;;;;;;;;;26.00;24.00;;;;;4.83;40.64;99040.72;6145291;28;98416;-63
2020/12/27 02:39:17;;;;;;;;;26.00;21.60;;;;;4.68;40.83;99003.31;6163400;28;97024;-62
2020/12/27 02:42:19;;;;;;;;;27.00;23.40;;;;;4.99;40.80;99045.91;6159399;28;97083;-62
2020/12/27 02:45:20;;;;;;;;;24.50;22.50;;;;;5.00;40.57;99047.56;6161542;28;96926;-62
2020/12/27 02:48:40;;;;;;;;;25.00;23.00;;;;;4.75;40.20;98997.03;6161536;28;96553;-63
2020/12/27 02:51:49;;;;;;;;;25.00;22.67;;;;;5.01;40.61;99018.00;6131828;28;97333;-63
2020/12/27 02:54:51;;;;;;;;;29.40;25.40;;;;;4.97;40.38;98995.34;6154625;28;97342;-62
2020/12/27 02:57:55;;;;;;;;;23.33;20.33;;;;;5.01;40.95;98993.13;6144124;28;97144;-64
2020/12/27 03:00:57;;;;;;;;;26.40;25.00;;;;;5.08;40.44;98994.84;6141511;28;98085;-63
2020/12/27 03:04:17;;;;;;;;;27.00;26.00;;;;;5.11;40.64;98999.84;6149297;28;97230;-62
2020/12/27 03:07:27;;;;;;;;;28.00;23.00;;;;;4.98;40.53;98969.44;6128050;28;97501;-63
2020/12/27 03:10:38;;;;;;;;;26.00;23.00;;;;;5.16;40.63;98981.44;6131953;28;97962;-62
2020/12/27 03:13:41;;;;;;;;;22.00;21.00;;;;;5.21;40.26;98986.22;6151579;28;96929;-63
2020/12/27 03:16:43;;;;;;;;;26.00;23.00;;;;;5.03;39.92;98941.16;6139036;28;97257;-62
2020/12/27 03:20:16;;;;;;;;;28.60;25.40;;;;;5.29;39.86;98974.59;6136538;28;97063;-62
2020/12/27 03:23:35;;;;;;;;;23.40;21.40;;;;;5.33;39.83;98991.91;6147961;28;96740;-63
2020/12/27 03:26:43;;;;;;;;;25.00;21.00;;;;;5.06;39.67;98923.94;6154404;28;96508;-63
2020/12/27 03:29:45;;;;;;;;;22.80;20.20;;;;;5.30;39.88;98971.72;6158763;28;97096;-62
2020/12/27 03:32:53;;;;;;;;;20.00;19.75;;;;;5.38;39.79;98973.47;6133993;28;97912;-62
2020/12/27 03:35:54;;;;;;;;;23.20;21.60;;;;;5.33;39.56;98957.97;6145507;28;98014;-62
2020/12/27 03:38:58;;;;;;;;;22.00;19.50;;;;;5.19;39.93;98945.47;6149433;28;97240;-62
2020/12/27 03:42:17;;;;;;;;;22.80;19.80;;;;;4.84;40.22;98896.28;6135766;28;97024;-63
2020/12/27 03:45:28;;;;;;;;;24.80;22.20;;;;;5.16;40.22;98943.19;6148987;28;98728;-62
2020/12/27 03:48:58;;;;;;;;;20.00;18.60;;;;;4.88;41.05;98935.00;6159441;28;97538;-62
2020/12/27 03:52:20;;;;;;;;;18.00;17.60;;;;;4.99;40.81;98923.81;6119396;28;97326;-62
2020/12/27 03:55:44;;;;;;;;;16.50;15.75;;;;;4.77;40.91;98901.56;6093394;28;97486;-62
2020/12/27 03:59:11;;;;;;;;;17.00;16.00;;;;;4.19;41.54;98882.81;6149893;28;97397;-63
2020/12/27 04:02:24;;;;;;;;;20.80;18.00;;;;;4.64;41.04;98916.56;6156141;28;97460;-62
2020/12/27 04:05:26;;;;;;;;;18.00;17.00;;;;;4.70;41.29;98900.63;6146661;28;97511;-62
2020/12/27 04:08:29;;;;;;;;;16.40;15.00;;;;;4.77;41.23;98895.38;6133271;28;97344;-63
2020/12/27 04:11:31;;;;;;;;;20.00;18.00;;;;;4.91;41.07;98896.38;6148169;28;97538;-62
2020/12/27 04:14:32;;;;;;;;;16.25;15.75;;;;;4.93;41.02;98895.19;6156056;28;97443;-63
2020/12/27 04:17:35;;;;;;;;;18.00;16.00;;;;;4.91;40.58;98859.81;6154823;28;98163;-62
2020/12/27 04:20:37;;;;;;;;;21.60;18.60;;;;;5.03;40.53;98873.53;6147218;28;96693;-61
2020/12/27 04:23:39;;;;;;;;;19.40;17.40;;;;;4.67;41.07;98823.56;6146949;28;97212;-62
2020/12/27 04:26:40;;;;;;;;;19.00;16.00;;;;;5.00;40.59;98852.53;6154688;28;97486;-63
2020/12/27 04:29:43;;;;;;;;;22.00;19.40;;;;;4.89;40.49;98831.66;6155507;28;97459;-62
2020/12/27 04:32:49;;;;;;;;;17.60;17.40;;;;;5.03;40.69;98849.50;6148040;28;97622;-64
2020/12/27 04:35:54;;;;;;;;;20.60;18.60;;;;;4.90;40.87;98843.97;6138427;28;98724;-61
2020/12/27 04:38:56;;;;;;;;;18.00;16.60;;;;;4.90;41.04;98833.28;6150633;28;96992;-62
2020/12/27 04:42:01;;;;;;;;;20.00;16.00;;;;;4.51;41.00;98785.53;6158109;28;98220;-62
2020/12/27 04:45:12;;;;;;;;;20.00;17.00;;;;;4.87;41.13;98834.50;6144490;28;97505;-62
2020/12/27 04:48:39;;;;;;;;;21.40;17.00;;;;;4.57;40.99;98798.16;6142747;28;97650;-62
2020/12/27 04:51:53;;;;;;;;;16.00;14.60;;;;;4.67;41.30;98815.56;6157247;28;97443;-62
2020/12/27 04:55:24;;;;;;;;;18.50;15.50;;;;;4.25;41.87;98791.38;6136804;28;97761;-62
2020/12/27 04:58:48;;;;;;;;;15.00;14.80;;;;;4.14;41.67;98776.63;6148059;28;96706;-62
2020/12/27 05:01:55;;;;;;;;;19.60;16.00;;;;;4.23;42.46;98812.91;6144095;28;97518;-63
2020/12/27 05:05:12;;;;;;;;;17.00;14.00;;;;;4.28;42.28;98815.84;6131147;28;97218;-62
2020/12/27 05:08:20;;;;;;;;;15.00;15.00;;;;;3.93;42.00;98781.84;6136951;28;97366;-62
2020/12/27 05:11:29;;;;;;;;;19.00;14.60;;;;;4.12;42.28;98810.66;6152348;28;97407;-62
2020/12/27 05:14:37;;;;;;;;;15.60;13.60;;;;;4.02;42.25;98778.09;6130583;28;97135;-62
2020/12/27 05:17:38;;;;;;;;;16.00;15.00;;;;;4.12;42.42;98802.66;6150744;28;98444;-62
2020/12/27 05:20:43;;;;;;;;;16.00;14.00;;;;;3.95;42.78;98805.69;6147032;28;98719;-62
2020/12/27 05:23:45;;;;;;;;;17.00;16.00;;;;;3.70;43.03;98778.41;6145064;28;97062;-63
2020/12/27 05:26:54;;;;;;;;;16.00;13.60;;;;;3.99;42.43;98778.47;6137585;28;98920;-62
2020/12/27 05:30:17;;;;;;;;;18.00;15.00;;;;;3.91;42.48;98787.38;6147505;28;96480;-62
2020/12/27 05:33:40;;;;;;;;;12.80;11.20;;;;;4.04;42.31;98791.25;6140756;28;97162;-62
2020/12/27 05:37:20;;;;;;;;;14.40;13.00;;;;;3.92;42.42;98785.53;6102084;28;97398;-63
2020/12/27 05:40:45;;;;;;;;;16.60;15.60;;;;;4.03;41.95;98786.91;6076279;28;97468;-62
2020/12/27 05:44:04;;;;;;;;;12.60;12.60;;;;;4.23;41.79;98794.22;6131091;28;98089;-64
2020/12/27 05:47:07;;;;;;;;;9.00;9.00;;;;;4.37;41.32;98784.53;6154056;28;97493;-63
2020/12/27 05:50:14;;;;;;;;;14.20;13.20;;;;;4.42;41.43;98786.66;6130022;28;97059;-62
2020/12/27 05:53:22;;;;;;;;;12.75;11.25;;;;;4.51;40.84;98781.03;6139309;28;97554;-63
2020/12/27 05:56:37;;;;;;;;;13.00;11.00;;;;;4.60;40.63;98777.25;6158080;28;98598;-63
2020/12/27 05:59:44;;;;;;;;;17.80;14.80;;;;;4.75;40.39;98775.38;6149407;28;97959;-62
2020/12/27 06:03:01;;;;;;;;;15.00;13.00;;;;;4.68;40.63;98776.34;6153925;28;97185;-62
2020/12/27 06:06:45;;;;;;;;;14.50;13.50;;;;;4.52;40.61;98788.03;6122583;28;97680;-62
2020/12/27 06:09:54;;;;;;;;;14.40;11.40;;;;;4.20;41.23;98791.91;6156417;28;97632;-62
2020/12/27 06:13:10;;;;;;;;;10.00;9.00;;;;;4.34;41.23;98783.09;6153787;28;97572;-61
2020/12/27 06:16:16;;;;;;;;;15.00;14.00;;;;;4.44;41.15;98789.97;6149851;28;97031;-60
2020/12/27 06:19:46;;;;;;;;;14.00;13.00;;;;;4.44;40.76;98785.47;6159550;28;96874;-61
2020/12/27 06:22:50;;;;;;;;;14.40;13.00;;;;;4.11;40.82;98720.97;6150045;28;97069;-60
2020/12/27 06:26:00;;;;;;;;;14.00;11.00;;;;;4.47;41.00;98781.59;6146433;28;97466;-62
2020/12/27 06:29:03;;;;;;;;;14.40;13.40;;;;;4.57;40.46;98795.50;6154088;28;96981;-60
2020/12/27 06:32:17;;;;;;;;;14.50;13.00;;;;;4.62;40.60;98791.25;6145602;28;97183;-60
2020/12/27 06:35:34;;;;;;;;;12.00;11.00;;;;;4.68;40.80;98787.84;6145206;28;97422;-60
2020/12/27 06:38:35;;;;;;;;;13.50;12.00;;;;;4.68;40.46;98773.66;6148970;28;97706;-61
2020/12/27 06:42:07;;;;;;;;;11.60;11.20;;;;;4.76;40.65;98781.56;6147568;28;98743;-61
2020/12/27 06:45:30;;;;;;;;;13.00;11.60;;;;;4.78;40.23;98783.03;6153011;28;97760;-61
2020/12/27 06:48:47;;;;;;;;;12.00;10.40;;;;;4.70;40.43;98777.78;6162820;28;97489;-60
2020/12/27 06:52:23;;;;;;;;;14.00;13.00;;;;;4.51;40.03;98745.50;6148235;28;97388;-60
2020/12/27 06:55:49;;;;;;;;;12.20;11.00;;;;;4.71;40.22;98774.09;6162603;28;98487;-61
2020/12/27 06:59:01;;;;;;;;;12.75;12.00;;;;;4.39;40.49;98713.13;6138053;28;98415;-61
2020/12/27 07:02:07;;;;;;;;;15.00;13.50;;;;;4.62;40.32;98745.88;6156133;28;97602;-61
2020/12/27 07:05:09;;;;;;;;;17.60;13.60;;;;;4.76;40.28;98760.19;6161825;28;98147;-61
2020/12/27 07:08:14;;;;;;;;;15.25;13.00;;;;;4.73;40.41;98755.22;6159046;28;97623;-61
2020/12/27 07:11:21;;;;;;;;;16.00;13.00;;;;;4.77;40.47;98740.50;6162048;28;98541;-61
2020/12/27 07:14:23;;;;;;;;;17.00;14.40;;;;;4.82;40.64;98748.75;6147272;28;96678;-61
2020/12/27 07:17:24;;;;;;;;;12.40;11.00;;;;;4.86;40.94;98750.03;6156246;28;97529;-61
2020/12/27 07:20:30;;;;;;;;;17.25;14.25;;;;;4.94;40.74;98747.25;6161214;28;97658;-61
2020/12/27 07:23:33;;;;;;;;;13.00;12.00;;;;;5.43;40.37;98738.47;6147843;28;97964;-61
2020/12/27 07:26:39;;;;;;;;;15.40;13.40;;;;;6.84;38.32;98736.28;6155585;28;96524;-62
2020/12/27 07:29:52;;;;;;;;;15.50;14.50;;;;;8.32;35.36;98688.38;6159610;28;97498;-61
2020/12/27 07:32:53;;;;;;;;;14.40;11.00;;;;;9.93;32.55;98678.81;6159966;28;97466;-60
2020/12/27 07:36:07;;;;;;;;;15.20;13.20;;;;;11.21;30.90;98712.72;6161069;28;96917;-61
2020/12/27 07:39:10;;;;;;;;;15.00;14.00;;;;;11.66;29.99;98710.34;6162305;28;98613;-61
2020/12/27 07:42:22;;;;;;;;;14.80;14.40;;;;;12.04;29.12;98645.09;6161265;28;97089;-61
2020/12/27 07:45:24;;;;;;;;;17.00;15.00;;;;;12.82;28.23;98663.44;6111483;28;97464;-61
2020/12/27 07:48:25;;;;;;;;;18.40;15.60;;;;;14.35;26.72;98704.75;6161560;28;97152;-61
2020/12/27 07:51:26;;;;;;;;;18.40;16.60;;;;;15.49;25.60;98681.09;6157843;28;98325;-61
2020/12/27 07:54:28;;;;;;;;;17.80;15.00;;;;;16.57;24.33;98700.63;6147919;28;97230;-61
2020/12/27 07:57:29;;;;;;;;;15.50;14.75;;;;;17.44;23.25;98692.50;6161076;28;97189;-61
2020/12/27 08:00:33;;;;;;;;;19.20;15.00;;;;;18.18;22.60;98689.19;6161157;28;97202;-62
2020/12/27 08:03:35;;;;;;;;;19.25;17.00;;;;;18.83;21.84;98682.75;6160574;28;96489;-61
2020/12/27 08:06:40;;;;;;;;;19.40;17.40;;;;;19.43;20.96;98680.78;6160653;28;97674;-61
2020/12/27 08:09:41;;;;;;;;;18.50;17.50;;;;;20.03;20.91;98665.00;6160580;28;97442;-61
2020/12/27 08:12:50;;;;;;;;;18.25;16.50;;;;;20.39;19.84;98647.13;6154393;28;96538;-61
2020/12/27 08:15:51;;;;;;;;;20.75;17.75;;;;;20.91;19.17;98656.34;6157992;28;97610;-62
2020/12/27 08:19:06;;;;;;;;;21.00;18.60;;;;;21.26;18.51;98661.34;6160368;28;96943;-61
2020/12/27 08:22:07;;;;;;;;;19.00;18.00;;;;;21.64;17.83;98667.66;6160052;28;98095;-62
2020/12/27 08:25:12;;;;;;;;;20.00;18.00;;;;;21.82;17.79;98647.56;6159298;28;97178;-62
2020/12/27 08:28:16;;;;;;;;;21.00;20.00;;;;;22.26;17.40;98665.47;6160643;28;96849;-62
2020/12/27 08:31:26;;;;;;;;;20.60;18.00;;;;;22.57;17.32;98672.03;6149029;28;97369;-62
2020/12/27 08:34:27;;;;;;;;;19.00;18.00;;;;;22.86;16.97;98669.81;6159407;28;97523;-62
2020/12/27 08:37:34;;;;;;;;;23.00;20.00;;;;;23.20;16.90;98674.03;6164560;28;96655;-62
2020/12/27 08:40:40;;;;;;;;;19.00;18.00;;;;;22.93;16.29;98641.88;6166230;28;96690;-62
2020/12/27 08:44:07;;;;;;;;;23.00;20.00;;;;;23.36;16.37;98667.03;6156012;28;99131;-62
2020/12/27 08:47:34;;;;;;;;;22.00;19.20;;;;;23.62;16.29;98664.53;6167656;28;96753;-62
2020/12/27 08:50:41;;;;;;;;;17.50;16.50;;;;;23.90;15.96;98666.03;6160535;28;98063;-61
2020/12/27 08:53:44;;;;;;;;;19.00;18.40;;;;;24.03;15.64;98645.06;6161571;28;97074;-62
2020/12/27 08:56:47;;;;;;;;;19.00;16.50;;;;;24.41;15.41;98657.28;6158014;28;97084;-61
2020/12/27 09:00:11;;;;;;;;;15.75;15.75;;;;;24.70;15.46;98622.84;6159195;28;97767;-61
2020/12/27 09:03:13;;;;;;;;;17.00;15.60;;;;;25.21;15.11;98645.03;6159693;28;97134;-61
2020/12/27 09:06:15;;;;;;;;;15.25;13.50;;;;;25.61;14.71;98658.72;6159763;28;97400;-61
2020/12/27 09:09:18;;;;;;;;;15.25;14.25;;;;;25.62;13.67;98643.75;6150954;28;97161;-61
2020/12/27 09:12:20;;;;;;;;;15.00;13.25;;;;;25.75;14.37;98637.25;6159296;28;98586;-61
2020/12/27 09:15:27;;;;;;;;;17.60;15.00;;;;;25.94;14.16;98623.09;6158632;28;98156;-61
2020/12/27 09:18:31;;;;;;;;;18.00;15.00;;;;;25.45;13.83;98590.16;6159069;28;98720;-62
2020/12/27 09:21:34;;;;;;;;;17.40;15.40;;;;;25.57;14.20;98614.38;6158522;28;97032;-62
2020/12/27 09:24:36;;;;;;;;;15.60;14.00;;;;;25.78;14.22;98609.78;6144883;28;97559;-61
2020/12/27 09:27:37;;;;;;;;;14.20;13.20;;;;;25.91;14.08;98601.63;6153622;28;97677;-61
2020/12/27 09:30:39;;;;;;;;;19.00;17.00;;;;;25.68;14.24;98590.00;6158654;28;97225;-61
2020/12/27 09:33:46;;;;;;;;;23.00;19.00;;;;;25.69;14.29;98578.63;6143171;28;97311;-62
2020/12/27 09:36:48;;;;;;;;;17.20;16.00;;;;;25.77;14.10;98579.75;6151240;28;97051;-61
2020/12/27 09:39:57;;;;;;;;;20.00;18.40;;;;;25.70;14.32;98549.06;6154307;28;97789;-61
2020/12/27 09:43:04;;;;;;;;;17.60;15.60;;;;;25.80;13.71;98585.41;6157972;28;97419;-63
2020/12/27 09:46:06;;;;;;;;;19.00;17.00;;;;;25.63;14.22;98560.59;6158353;28;97620;-63
2020/12/27 09:49:28;;;;;;;;;19.60;18.00;;;;;25.76;14.59;98536.69;6147209;28;97390;-62
2020/12/27 09:52:30;;;;;;;;;24.00;23.00;;;;;26.20;14.32;98565.78;6144666;28;97947;-62
2020/12/27 09:55:34;;;;;;;;;18.80;18.00;;;;;26.38;13.83;98555.50;6151889;28;97362;-62
2020/12/27 09:58:37;;;;;;;;;20.80;17.20;;;;;26.13;13.17;98541.44;6153721;28;97537;-62
2020/12/27 10:01:38;;;;;;;;;13.00;12.60;;;;;25.40;12.46;98474.44;6157274;28;97495;-62
2020/12/27 10:04:39;;;;;;;;;21.50;19.00;;;;;25.61;13.91;98485.56;6157919;28;97056;-62
2020/12/27 10:07:42;;;;;;;;;23.00;22.00;;;;;25.77;14.21;98507.94;6152964;28;96718;-62
2020/12/27 10:10:44;;;;;;;;;14.60;13.40;;;;;25.65;13.00;98505.88;6141785;28;98563;-62
2020/12/27 10:13:45;;;;;;;;;24.50;22.50;;;;;25.32;14.39;98439.38;6159559;28;96805;-62
2020/12/27 10:16:48;;;;;;;;;23.80;20.40;;;;;25.61;13.80;98466.25;6161100;28;97499;-62
2020/12/27 10:19:49;;;;;;;;;16.00;15.00;;;;;25.67;13.34;98481.50;6161404;28;97775;-62
2020/12/27 10:22:50;;;;;;;;;17.40;15.00;;;;;25.63;13.20;98486.06;6163663;28;97965;-62
2020/12/27 10:25:52;;;;;;;;;11.00;9.40;;;;;25.41;12.51;98487.06;6161412;28;98358;-62
2020/12/27 10:28:53;;;;;;;;;8.50;8.00;;;;;25.28;12.42;98468.75;6161511;28;97010;-62
2020/12/27 10:32:03;;;;;;;;;16.50;14.00;;;;;25.03;13.47;98425.47;6161410;28;96914;-63
2020/12/27 10:35:05;;;;;;;;;20.50;18.50;;;;;25.49;14.01;98452.31;6161315;28;96799;-62
2020/12/27 10:38:06;;;;;;;;;17.40;16.00;;;;;25.18;13.36;98399.31;6160997;28;96897;-63
2020/12/27 10:41:08;;;;;;;;;16.00;13.00;;;;;25.33;13.25;98421.69;6159664;28;97702;-62
2020/12/27 10:44:10;;;;;;;;;14.25;14.00;;;;;25.03;13.19;98414.44;6149999;28;98660;-62
2020/12/27 10:47:12;;;;;;;;;12.40;11.40;;;;;24.31;12.51;98400.53;6154420;28;97188;-63
2020/12/27 10:50:13;;;;;;;;;12.40;10.40;;;;;24.08;13.33;98386.06;6160445;28;97479;-62
2020/12/27 10:53:15;;;;;;;;;13.00;12.00;;;;;24.40;13.40;98382.06;6147117;28;98553;-62
2020/12/27 10:56:19;;;;;;;;;12.00;11.60;;;;;23.42;13.33;98363.19;6159536;28;97471;-62
2020/12/27 10:59:21;;;;;;;;;12.00;11.00;;;;;23.07;13.88;98358.66;6160677;28;97839;-63
2020/12/27 11:02:22;;;;;;;;;14.00;13.40;;;;;23.04;14.56;98332.63;6160169;28;97197;-63
2020/12/27 11:05:24;;;;;;;;;11.00;10.50;;;;;23.44;14.04;98360.94;6160789;28;96609;-63
2020/12/27 11:08:25;;;;;;;;;11.00;11.00;;;;;23.61;13.93;98354.69;6160785;28;98736;-64
2020/12/27 11:11:27;;;;;;;;;15.00;13.00;;;;;23.75;13.54;98353.44;6160954;28;97202;-63
2020/12/27 11:14:28;;;;;;;;;13.00;12.00;;;;;23.48;13.76;98295.91;6161199;28;97683;-63
2020/12/27 11:17:29;;;;;;;;;14.50;12.75;;;;;23.96;13.90;98320.59;6159995;28;96651;-64
2020/12/27 11:20:31;;;;;;;;;10.00;9.00;;;;;22.42;14.06;98328.97;6156253;28;97525;-64
2020/12/27 11:23:32;;;;;;;;;9.00;8.00;;;;;22.48;13.95;98333.22;6160173;28;98691;-63
2020/12/27 11:26:34;;;;;;;;;11.00;10.00;;;;;22.83;14.04;98321.34;6159183;28;97580;-63
2020/12/27 11:29:35;;;;;;;;;11.00;9.00;;;;;22.76;13.69;98270.72;6155426;28;96934;-63
2020/12/27 11:32:37;;;;;;;;;10.50;9.00;;;;;23.17;14.04;98308.88;6158176;28;96751;-63
2020/12/27 11:35:38;;;;;;;;;11.25;10.00;;;;;22.94;13.89;98318.31;6159106;28;98235;-63
2020/12/27 11:38:40;;;;;;;;;11.20;10.80;;;;;23.16;14.08;98301.78;6158606;28;97579;-64
2020/12/27 11:41:42;;;;;;;;;10.00;9.00;;;;;23.22;13.85;98292.25;6157410;28;96781;-63
2020/12/27 11:44:44;;;;;;;;;10.60;9.00;;;;;22.48;13.74;98254.34;6159356;28;98036;-63
2020/12/27 11:47:46;;;;;;;;;8.00;7.00;;;;;22.28;14.36;98267.81;6145547;28;98519;-63
2020/12/27 11:50:47;;;;;;;;;13.00;10.00;;;;;22.13;14.67;98243.50;6155425;28;97580;-63
2020/12/27 11:53:50;;;;;;;;;14.00;13.00;;;;;22.34;15.40;98201.44;6159610;28;97208;-64
2020/12/27 11:56:55;;;;;;;;;14.20;12.00;;;;;22.80;14.64;98212.06;6159719;28;97234;-63
2020/12/27 11:59:57;;;;;;;;;13.00;12.00;;;;;23.31;14.63;98224.34;6159622;28;96830;-63
2020/12/27 12:02:59;;;;;;;;;14.20;12.80;;;;;23.35;14.39;98216.25;6158295;28;97259;-64
2020/12/27 12:06:00;;;;;;;;;13.00;12.40;;;;;23.03;14.30;98201.78;6159415;28;97695;-64
2020/12/27 12:09:05;;;;;;;;;15.60;13.60;;;;;22.95;14.69;98199.81;6146494;28;98726;-64
2020/12/27 12:12:07;;;;;;;;;13.60;12.60;;;;;22.24;14.60;98157.78;6158768;28;97023;-64
2020/12/27 12:15:08;;;;;;;;;14.60;13.00;;;;;21.61;15.23;98169.78;6158921;28;99201;-64
2020/12/27 12:18:09;;;;;;;;;13.75;12.00;;;;;21.59;15.10;98163.81;6146439;28;98426;-64
2020/12/27 12:21:11;;;;;;;;;14.00;12.00;;;;;21.81;15.37;98142.97;6159183;28;97462;-62
2020/12/27 12:24:13;;;;;;;;;14.60;13.60;;;;;22.11;15.28;98147.72;6150654;28;97886;-64
2020/12/27 12:27:14;;;;;;;;;15.00;14.20;;;;;21.93;15.07;98089.19;6155493;28;99116;-64
2020/12/27 12:30:16;;;;;;;;;15.50;13.50;;;;;21.96;14.86;98107.75;6159830;28;97157;-64
2020/12/27 12:33:17;;;;;;;;;17.00;13.80;;;;;21.99;14.78;98129.06;6154266;28;97533;-64
2020/12/27 12:36:21;;;;;;;;;18.00;15.00;;;;;21.57;14.90;98132.31;6159844;28;97342;-64
2020/12/27 12:39:23;;;;;;;;;13.00;13.00;;;;;21.29;15.05;98142.56;6147428;28;97079;-64
2020/12/27 12:42:24;;;;;;;;;17.00;14.00;;;;;19.90;16.06;98050.94;6159793;28;96518;-64
2020/12/27 12:45:26;;;;;;;;;14.00;13.60;;;;;20.04;16.42;98127.56;6159764;28;97054;-64
2020/12/27 12:48:28;;;;;;;;;15.20;14.80;;;;;19.61;17.29;98119.56;6159144;28;97602;-64
2020/12/27 12:51:29;;;;;;;;;15.00;15.00;;;;;18.43;17.81;98112.44;6159276;28;97606;-64
2020/12/27 12:54:30;;;;;;;;;18.00;16.00;;;;;18.30;18.33;98107.69;6159469;28;97471;-63
2020/12/27 12:57:33;;;;;;;;;16.60;14.60;;;;;18.03;18.72;98079.06;6141518;28;97892;-64
2020/12/27 13:00:34;;;;;;;;;17.60;17.00;;;;;17.79;19.04;98086.41;6160156;28;96968;-64
2020/12/27 13:03:36;;;;;;;;;20.00;17.50;;;;;17.29;19.27;98088.47;6159340;28;97683;-62
2020/12/27 13:06:37;;;;;;;;;16.33;15.33;;;;;16.82;19.71;98072.69;6153684;28;98364;-63
2020/12/27 13:09:38;;;;;;;;;18.50;17.00;;;;;16.59;20.27;98070.66;6159105;28;98699;-64
2020/12/27 13:12:40;;;;;;;;;19.00;16.00;;;;;15.62;21.01;98039.44;6159858;28;98638;-62
2020/12/27 13:15:43;;;;;;;;;17.60;17.00;;;;;15.93;21.32;98043.69;6155029;28;97195;-62
2020/12/27 13:18:44;;;;;;;;;16.25;13.75;;;;;15.78;21.39;98043.75;6159693;28;98430;-62
2020/12/27 13:21:46;;;;;;;;;18.00;16.25;;;;;15.78;21.38;98064.69;6159550;28;96719;-63
2020/12/27 13:24:48;;;;;;;;;18.25;17.75;;;;;15.16;22.21;98068.50;6148158;28;97707;-62
2020/12/27 13:27:50;;;;;;;;;18.00;16.00;;;;;14.19;22.67;97942.72;6159565;28;97426;-62
2020/12/27 13:30:51;;;;;;;;;17.60;14.00;;;;;13.73;23.74;97985.09;6159847;28;97802;-62
2020/12/27 13:33:52;;;;;;;;;17.20;16.00;;;;;14.03;23.69;98045.94;6158894;28;97443;-62
2020/12/27 13:36:54;;;;;;;;;22.40;19.40;;;;;13.83;24.14;98025.78;6145037;28;96982;-63
2020/12/27 13:39:55;;;;;;;;;14.00;11.50;;;;;12.69;25.06;97948.94;6159098;28;96807;-62
2020/12/27 13:42:57;;;;;;;;;16.00;14.00;;;;;12.75;25.64;97983.91;6158461;28;96507;-62
2020/12/27 13:45:58;;;;;;;;;17.00;15.40;;;;;12.85;25.25;97975.84;6153614;28;96624;-62
2020/12/27 13:49:03;;;;;;;;;18.00;15.50;;;;;12.75;25.69;97974.97;6161973;28;97514;-62
2020/12/27 13:52:04;;;;;;;;;20.00;19.00;;;;;12.59;26.02;97930.75;6150048;28;97249;-61
2020/12/27 13:55:07;;;;;;;;;20.00;19.00;;;;;12.76;26.04;97933.31;6163120;28;96996;-62
2020/12/27 13:58:08;;;;;;;;;19.40;17.40;;;;;12.80;26.07;97929.84;6162428;28;97157;-61
2020/12/27 14:01:10;;;;;;;;;19.00;18.00;;;;;12.83;26.03;97921.22;6157554;28;97435;-62
2020/12/27 14:04:11;;;;;;;;;23.00;19.00;;;;;12.86;26.18;97909.84;6151675;28;96705;-61
2020/12/27 14:07:13;;;;;;;;;21.80;20.00;;;;;12.93;26.34;97902.34;6162770;28;98494;-62
2020/12/27 14:10:16;;;;;;;;;21.00;19.00;;;;;12.81;26.73;97880.06;6162408;28;98212;-62
2020/12/27 14:13:17;;;;;;;;;22.00;20.00;;;;;12.93;26.43;97883.41;6159374;28;97743;-62
2020/12/27 14:16:19;;;;;;;;;21.60;20.00;;;;;12.84;26.59;97871.44;6151043;28;97235;-62
2020/12/27 14:19:20;;;;;;;;;23.00;21.00;;;;;12.87;26.60;97868.22;6161994;28;97599;-62
2020/12/27 14:22:22;;;;;;;;;28.00;24.00;;;;;12.73;26.82;97871.63;6161268;28;97312;-62